createdAt,value
2022-11-29T00:01:17.249Z,5.57
2022-11-29T00:03:18.812Z,7.03
2022-11-29T00:05:20.452Z,8.10
2022-11-29T00:07:21.999Z,21.63
2022-11-29T00:09:23.331Z,17.88
2022-11-29T00:11:44.476Z,7.97
2022-11-29T00:13:45.898Z,3.80
2022-11-29T00:15:47.339Z,4.13
2022-11-29T00:17:49.690Z,5.63
2022-11-29T00:19:51.040Z,5.00
2022-11-29T00:21:52.475Z,5.53
2022-11-29T00:23:53.922Z,6.30
2022-11-29T00:25:55.250Z,5.82
2022-11-29T00:27:56.665Z,3.88
2022-11-29T00:29:58.030Z,3.80
2022-11-29T00:31:59.584Z,4.88
2022-11-29T00:34:01.879Z,4.63
2022-11-29T00:36:03.319Z,2.65
2022-11-29T00:38:04.751Z,5.43
2022-11-29T00:40:06.469Z,2.50
2022-11-29T00:42:07.764Z,6.35
2022-11-29T00:44:09.551Z,6.05
2022-11-29T00:46:10.967Z,4.57
2022-11-29T00:48:12.330Z,5.22
2022-11-29T00:50:13.676Z,4.65
2022-11-29T00:52:15.185Z,1.95
2022-11-29T00:54:16.733Z,4.40
2022-11-29T00:56:18.204Z,3.92
2022-11-29T00:58:19.837Z,2.75
2022-11-29T01:00:21.275Z,2.88
2022-11-29T01:02:22.768Z,5.57
2022-11-29T01:04:24.272Z,3.58
2022-11-29T01:06:25.663Z,4.70
2022-11-29T01:08:26.976Z,4.38
2022-11-29T01:10:28.334Z,2.70
2022-11-29T01:12:29.780Z,2.47
2022-11-29T01:14:31.218Z,2.08
2022-11-29T01:16:32.847Z,4.13
2022-11-29T01:18:34.950Z,3.78
2022-11-29T01:20:36.379Z,4.10
2022-11-29T01:22:38.707Z,3.75
2022-11-29T01:24:40.162Z,3.47
2022-11-29T01:26:41.551Z,3.67
2022-11-29T01:28:42.890Z,4.10
2022-11-29T01:30:46.604Z,3.58
2022-11-29T01:32:48.037Z,2.88
2022-11-29T01:34:49.399Z,5.35
2022-11-29T01:36:50.902Z,3.08
2022-11-29T01:38:52.202Z,4.22
2022-11-29T01:41:13.285Z,2.70
2022-11-29T01:43:23.629Z,3.15
2022-11-29T01:45:26.119Z,4.93
2022-11-29T01:47:27.772Z,3.42
2022-11-29T01:49:32.183Z,2.83
2022-11-29T01:51:34.307Z,4.43
2022-11-29T01:53:35.672Z,6.05
2022-11-29T01:55:38.447Z,4.00
2022-11-29T01:57:41.248Z,6.15
2022-11-29T01:59:44.708Z,3.67
2022-11-29T02:01:46.178Z,4.38
2022-11-29T02:03:47.639Z,7.60
2022-11-29T02:05:50.426Z,2.58
2022-11-29T02:07:53.670Z,3.70
2022-11-29T02:09:55.044Z,7.03
2022-11-29T02:12:15.134Z,4.90
2022-11-29T02:14:31.968Z,4.93
2022-11-29T02:16:37.125Z,6.07
2022-11-29T02:19:03.304Z,5.03
2022-11-29T02:21:04.611Z,4.72
2022-11-29T02:23:35.148Z,3.60
2022-11-29T02:25:45.293Z,6.55
2022-11-29T02:27:52.623Z,6.65
2022-11-29T02:30:12.132Z,6.28
2022-11-29T02:32:16.496Z,4.95
2022-11-29T02:34:47.306Z,6.25
2022-11-29T02:36:57.432Z,6.15
2022-11-29T02:39:16.953Z,5.57
2022-11-29T02:41:29.898Z,4.15
2022-11-29T02:44:03.739Z,3.90
2022-11-29T02:46:12.339Z,5.40
2022-11-29T02:48:13.628Z,4.47
2022-11-29T02:50:20.921Z,4.68
2022-11-29T02:52:29.096Z,4.38
2022-11-29T02:54:42.815Z,4.20
2022-11-29T02:56:47.160Z,5.70
2022-11-29T02:58:59.769Z,4.60
2022-11-29T03:01:07.480Z,4.20
2022-11-29T03:03:20.885Z,5.22
2022-11-29T03:05:31.652Z,3.97
2022-11-29T03:07:44.456Z,5.13
2022-11-29T03:10:06.230Z,5.28
2022-11-29T03:12:07.577Z,4.43
2022-11-29T03:14:20.011Z,4.47
2022-11-29T03:16:42.749Z,7.35
2022-11-29T03:18:56.046Z,7.05
2022-11-29T03:21:18.427Z,10.68
2022-11-29T03:23:29.822Z,6.57
2022-11-29T03:25:34.117Z,5.40
2022-11-29T03:27:37.952Z,5.20
2022-11-29T03:29:39.220Z,4.60
2022-11-29T03:31:47.429Z,6.13
2022-11-29T03:34:07.114Z,8.35
2022-11-29T03:36:14.415Z,7.90
2022-11-29T03:38:21.835Z,6.97
2022-11-29T03:40:27.916Z,4.63
2022-11-29T03:42:31.560Z,6.72
2022-11-29T03:44:49.272Z,7.07
2022-11-29T03:46:54.443Z,4.57
2022-11-29T03:49:02.560Z,6.15
2022-11-29T03:51:07.620Z,7.13
2022-11-29T03:53:27.924Z,5.45
2022-11-29T03:55:45.716Z,7.43
2022-11-29T03:57:46.981Z,7.35
2022-11-29T04:00:04.359Z,5.07
2022-11-29T04:02:16.589Z,5.95
2022-11-29T04:04:30.054Z,9.55
2022-11-29T04:07:00.724Z,4.78
2022-11-29T04:09:07.721Z,8.57
2022-11-29T04:11:27.844Z,5.60
2022-11-29T04:13:35.530Z,9.00
2022-11-29T04:15:39.903Z,4.88
2022-11-29T04:18:02.423Z,5.75
2022-11-29T04:20:15.836Z,7.25
2022-11-29T04:22:26.171Z,6.97
2022-11-29T04:24:46.136Z,6.10
2022-11-29T04:26:47.643Z,5.07
2022-11-29T04:28:51.785Z,6.10
2022-11-29T04:31:00.144Z,2.47
2022-11-29T04:33:04.273Z,4.85
2022-11-29T04:35:11.639Z,4.95
2022-11-29T04:37:12.917Z,4.72
2022-11-29T04:39:29.273Z,5.88
2022-11-29T04:41:44.249Z,5.47
2022-11-29T04:43:55.903Z,3.65
2022-11-29T04:46:19.301Z,4.32
2022-11-29T04:48:39.303Z,6.95
2022-11-29T04:51:04.108Z,5.43
2022-11-29T04:53:11.233Z,5.15
2022-11-29T04:55:31.151Z,3.25
2022-11-29T04:57:36.183Z,4.63
2022-11-29T04:59:47.436Z,4.88
2022-11-29T05:02:02.778Z,5.15
2022-11-29T05:04:19.601Z,4.68
2022-11-29T05:06:25.359Z,7.28
2022-11-29T05:08:26.677Z,4.65
2022-11-29T05:10:46.503Z,5.95
2022-11-29T05:13:09.549Z,4.57
2022-11-29T05:15:20.603Z,4.28
2022-11-29T05:17:40.266Z,4.90
2022-11-29T05:19:41.620Z,4.85
2022-11-29T05:22:00.390Z,6.55
2022-11-29T05:24:07.707Z,7.15
2022-11-29T05:26:19.905Z,8.13
2022-11-29T05:28:39.952Z,5.45
2022-11-29T05:31:04.583Z,6.40
2022-11-29T05:33:23.275Z,8.38
2022-11-29T05:35:24.763Z,7.72
2022-11-29T05:37:35.074Z,10.02
2022-11-29T05:39:44.741Z,7.00
2022-11-29T05:42:24.391Z,8.10
2022-11-29T05:44:47.155Z,6.43
2022-11-29T05:46:56.913Z,7.05
2022-11-29T05:48:58.305Z,5.90
2022-11-29T05:51:05.412Z,6.93
2022-11-29T05:53:06.698Z,6.75
2022-11-29T05:55:13.843Z,7.15
2022-11-29T05:57:33.856Z,8.00
2022-11-29T05:59:38.068Z,7.57
2022-11-29T06:02:04.110Z,5.88
2022-11-29T06:04:14.689Z,6.10
2022-11-29T06:06:25.927Z,9.57
2022-11-29T06:08:36.444Z,7.60
2022-11-29T06:10:43.060Z,7.93
2022-11-29T06:12:54.889Z,8.15
2022-11-29T06:14:57.032Z,6.15
2022-11-29T06:17:10.431Z,7.78
2022-11-29T06:19:25.707Z,8.45
2022-11-29T06:21:39.145Z,6.80
2022-11-29T06:23:51.624Z,6.95
2022-11-29T06:25:53.446Z,8.52
2022-11-29T06:28:00.368Z,8.10
2022-11-29T06:30:09.291Z,9.05
2022-11-29T06:32:19.915Z,8.48
2022-11-29T06:34:30.377Z,10.57
2022-11-29T06:38:33.651Z,11.20
2022-11-29T06:40:35.233Z,11.77
2022-11-29T06:42:36.557Z,11.23
2022-11-29T06:44:38.204Z,11.93
2022-11-29T06:46:45.540Z,11.00
2022-11-29T06:49:04.943Z,7.03
2022-11-29T06:51:21.317Z,9.02
2022-11-29T06:53:26.991Z,9.02
2022-11-29T06:55:42.476Z,9.30
2022-11-29T06:57:58.635Z,8.27
2022-11-29T07:00:00.065Z,9.88
2022-11-29T07:02:19.922Z,7.80
2022-11-29T07:04:29.548Z,9.43
2022-11-29T07:06:31.794Z,11.85
2022-11-29T07:08:33.607Z,8.38
2022-11-29T07:10:36.108Z,10.02
2022-11-29T07:12:37.495Z,9.00
2022-11-29T07:14:39.159Z,7.15
2022-11-29T07:17:03.441Z,6.53
2022-11-29T07:19:23.740Z,9.18
2022-11-29T07:21:40.003Z,9.60
2022-11-29T07:23:45.970Z,6.03
2022-11-29T07:26:06.053Z,7.40
2022-11-29T07:28:10.364Z,8.60
2022-11-29T07:30:14.674Z,6.80
2022-11-29T07:32:40.213Z,6.82
2022-11-29T07:34:56.528Z,9.82
2022-11-29T07:37:04.074Z,8.13
2022-11-29T07:39:24.217Z,12.45
2022-11-29T07:41:34.516Z,8.38
2022-11-29T07:43:45.756Z,13.18
2022-11-29T07:45:47.271Z,8.63
2022-11-29T07:47:49.589Z,10.02
2022-11-29T07:49:51.019Z,10.77
2022-11-29T07:51:54.315Z,8.55
2022-11-29T07:53:55.675Z,10.13
2022-11-29T07:55:57.591Z,9.80
2022-11-29T07:57:58.922Z,10.85
2022-11-29T08:00:00.655Z,8.30
2022-11-29T08:02:02.497Z,11.10
2022-11-29T08:04:05.313Z,8.73
2022-11-29T08:06:06.747Z,6.70
2022-11-29T08:08:08.216Z,9.73
2022-11-29T08:10:11.132Z,6.35
2022-11-29T08:12:12.599Z,8.63
2022-11-29T08:14:14.045Z,9.10
2022-11-29T08:16:16.419Z,12.73
2022-11-29T08:18:18.080Z,9.52
2022-11-29T08:20:19.507Z,11.50
2022-11-29T08:22:20.891Z,9.10
2022-11-29T08:24:22.429Z,11.23
2022-11-29T08:26:28.278Z,11.68
2022-11-29T08:28:32.682Z,7.57
2022-11-29T08:30:34.264Z,8.27
2022-11-29T08:34:51.066Z,9.07
2022-11-29T08:36:54.532Z,7.95
2022-11-29T08:39:03.456Z,7.35
2022-11-29T08:41:10.533Z,5.32
2022-11-29T08:43:11.986Z,7.50
2022-11-29T08:45:13.556Z,5.70
2022-11-29T08:47:33.621Z,7.63
2022-11-29T08:51:59.654Z,5.78
2022-11-29T08:54:01.151Z,7.22
2022-11-29T08:56:12.127Z,8.32
2022-11-29T08:58:25.295Z,10.60
2022-11-29T09:07:13.292Z,5.70
2022-11-29T09:09:14.714Z,5.95
2022-11-29T09:11:20.949Z,6.55
2022-11-29T09:13:22.333Z,8.13
2022-11-29T09:15:23.798Z,7.18
2022-11-29T09:17:35.581Z,4.82
2022-11-29T09:19:36.980Z,5.47
2022-11-29T09:21:38.364Z,7.25
2022-11-29T09:23:40.761Z,6.43
2022-11-29T09:25:47.405Z,6.60
2022-11-29T09:27:48.788Z,6.30
2022-11-29T09:29:50.296Z,6.07
2022-11-29T09:31:51.731Z,7.43
2022-11-29T09:33:54.054Z,4.43
2022-11-29T09:35:57.548Z,7.07
2022-11-29T09:37:59.032Z,6.13
2022-11-29T09:40:00.417Z,5.60
2022-11-29T09:42:12.162Z,7.10
2022-11-29T09:44:13.508Z,8.88
2022-11-29T09:46:38.058Z,10.27
2022-11-29T09:48:55.640Z,5.90
2022-11-29T09:51:05.852Z,8.52
2022-11-29T09:53:19.627Z,8.68
2022-11-29T09:55:23.850Z,6.43
2022-11-29T09:57:27.066Z,6.38
2022-11-29T09:59:47.936Z,7.90
2022-11-29T10:03:53.255Z,8.20
2022-11-29T10:06:00.116Z,8.52
2022-11-29T10:08:01.636Z,7.97
2022-11-29T10:10:08.079Z,6.80
2022-11-29T10:12:09.437Z,9.63
2022-11-29T10:14:17.956Z,8.55
2022-11-29T10:16:25.799Z,8.98
2022-11-29T10:18:38.668Z,5.78
2022-11-29T10:20:46.064Z,6.93
2022-11-29T10:23:02.212Z,4.40
2022-11-29T10:25:04.412Z,8.15
2022-11-29T10:27:12.695Z,4.78
2022-11-29T10:29:15.204Z,6.88
2022-11-29T10:31:26.745Z,9.75
2022-11-29T10:33:32.893Z,4.97
2022-11-29T10:35:34.513Z,9.20
2022-11-29T10:37:35.876Z,13.68
2022-11-29T10:39:46.681Z,9.48
2022-11-29T10:43:50.038Z,10.35
2022-11-29T10:45:55.975Z,8.35
2022-11-29T10:48:08.162Z,7.20
2022-11-29T10:50:13.983Z,10.18
2022-11-29T10:52:18.471Z,5.82
2022-11-29T10:54:22.509Z,6.88
2022-11-29T10:56:30.098Z,7.60
2022-11-29T10:58:31.488Z,8.40
2022-11-29T11:00:42.301Z,12.68
2022-11-29T11:04:46.493Z,8.30
2022-11-29T11:06:52.478Z,10.00
2022-11-29T11:08:55.344Z,8.35
2022-11-29T11:11:01.875Z,6.72
2022-11-29T11:13:20.484Z,9.75
2022-11-29T11:15:24.579Z,6.40
2022-11-29T11:17:27.526Z,5.85
2022-11-29T11:19:32.883Z,5.60
2022-11-29T11:21:38.365Z,9.13
2022-11-29T11:23:58.545Z,8.68
2022-11-29T11:26:04.734Z,6.57
2022-11-29T11:28:20.580Z,5.75
2022-11-29T11:30:26.240Z,7.22
2022-11-29T11:32:27.763Z,6.05
2022-11-29T11:34:29.273Z,6.40
2022-11-29T11:36:30.736Z,6.40
2022-11-29T11:38:32.513Z,8.18
2022-11-29T11:40:34.585Z,8.73
2022-11-29T11:42:39.216Z,5.13
2022-11-29T11:44:49.393Z,7.10
2022-11-29T11:46:51.390Z,5.80
2022-11-29T11:48:52.924Z,6.03
2022-11-29T11:50:58.887Z,6.78
2022-11-29T11:53:05.485Z,5.70
2022-11-29T11:55:22.582Z,5.70
2022-11-29T11:57:28.650Z,6.50
2022-11-29T11:59:30.077Z,7.30
2022-11-29T12:01:38.599Z,7.68
2022-11-29T12:03:58.705Z,9.68
2022-11-29T12:06:06.141Z,5.53
2022-11-29T12:08:10.917Z,11.73
2022-11-29T12:10:18.655Z,8.98
2022-11-29T12:12:23.225Z,6.90
2022-11-29T12:14:48.045Z,7.50
2022-11-29T12:16:53.833Z,7.15
2022-11-29T12:18:58.555Z,8.30
2022-11-29T12:21:05.753Z,4.82
2022-11-29T12:23:19.525Z,5.18
2022-11-29T12:25:23.317Z,9.95
2022-11-29T12:27:24.804Z,4.75
2022-11-29T12:29:28.677Z,6.95
2022-11-29T12:31:39.354Z,4.82
2022-11-29T12:33:55.757Z,5.40
2022-11-29T12:36:09.151Z,10.63
2022-11-29T12:38:16.568Z,7.78
2022-11-29T12:40:30.137Z,7.13
2022-11-29T12:42:36.113Z,5.63
2022-11-29T12:44:53.387Z,6.00
2022-11-29T12:49:31.921Z,7.82
2022-11-29T12:51:42.411Z,7.72
2022-11-29T12:53:55.919Z,6.95
2022-11-29T12:56:00.300Z,6.13
2022-11-29T12:58:04.458Z,5.25
2022-11-29T13:00:08.296Z,6.35
2022-11-29T13:02:20.497Z,7.20
2022-11-29T13:04:37.815Z,4.78
2022-11-29T13:06:45.535Z,7.80
2022-11-29T13:08:59.301Z,6.85
2022-11-29T13:11:00.712Z,7.10
2022-11-29T13:13:14.059Z,5.82
2022-11-29T13:15:16.956Z,6.35
2022-11-29T13:17:26.748Z,5.32
2022-11-29T13:19:40.799Z,4.85
2022-11-29T13:21:57.126Z,5.00
2022-11-29T13:24:17.897Z,8.43
2022-11-29T13:26:20.302Z,5.88
2022-11-29T13:28:29.207Z,8.27
2022-11-29T13:30:31.122Z,6.57
2022-11-29T13:32:37.457Z,12.25
2022-11-29T13:34:44.094Z,10.00
2022-11-29T13:37:04.954Z,7.78
2022-11-29T13:39:14.815Z,8.95
2022-11-29T13:41:35.146Z,7.93
2022-11-29T13:43:39.310Z,10.15
2022-11-29T13:46:01.422Z,7.85
2022-11-29T13:48:24.928Z,5.85
2022-11-29T13:50:42.412Z,7.35
2022-11-29T13:52:44.924Z,4.85
2022-11-29T13:54:46.703Z,7.10
2022-11-29T13:56:48.625Z,7.18
2022-11-29T13:58:52.568Z,7.15
2022-11-29T14:01:14.616Z,7.97
2022-11-29T14:03:19.194Z,8.48
2022-11-29T14:05:26.724Z,10.25
2022-11-29T14:07:28.218Z,5.88
2022-11-29T14:09:33.554Z,5.05
2022-11-29T14:11:37.591Z,7.35
2022-11-29T14:13:48.563Z,7.43
2022-11-29T14:15:55.092Z,5.53
2022-11-29T14:18:02.281Z,8.80
2022-11-29T14:20:24.292Z,6.88
2022-11-29T14:22:26.963Z,7.35
2022-11-29T14:24:37.955Z,8.38
2022-11-29T14:26:39.407Z,5.85
2022-11-29T14:28:40.984Z,6.20
2022-11-29T14:30:42.349Z,6.63
2022-11-29T14:32:54.275Z,4.63
2022-11-29T14:35:04.004Z,5.28
2022-11-29T14:37:08.945Z,5.70
2022-11-29T14:39:12.997Z,7.15
2022-11-29T14:41:26.267Z,7.15
2022-11-29T14:43:35.644Z,8.18
2022-11-29T14:45:37.169Z,4.70
2022-11-29T14:47:47.949Z,3.75
2022-11-29T14:49:50.388Z,3.40
2022-11-29T14:52:10.006Z,4.15
2022-11-29T14:54:12.625Z,3.42
2022-11-29T14:56:32.318Z,2.45
2022-11-29T14:58:33.643Z,3.75
2022-11-29T15:00:47.026Z,3.25
2022-11-29T15:02:50.739Z,2.92
2022-11-29T15:04:53.278Z,4.35
2022-11-29T15:06:55.823Z,5.20
2022-11-29T15:09:02.967Z,5.25
2022-11-29T15:11:09.988Z,5.15
2022-11-29T15:13:12.785Z,3.45
2022-11-29T15:15:32.535Z,5.90
2022-11-29T15:17:36.702Z,5.38
2022-11-29T15:19:45.017Z,5.80
2022-11-29T15:22:03.872Z,4.78
2022-11-29T15:24:15.655Z,4.95
2022-11-29T15:26:18.555Z,5.93
2022-11-29T15:28:21.803Z,6.72
2022-11-29T15:30:32.545Z,5.68
2022-11-29T15:32:34.404Z,7.53
2022-11-29T15:34:45.250Z,5.70
2022-11-29T15:36:46.888Z,4.88
2022-11-29T15:38:52.461Z,6.03
2022-11-29T15:40:54.505Z,7.25
2022-11-29T15:43:14.740Z,7.57
2022-11-29T15:45:25.533Z,6.20
2022-11-29T15:49:28.869Z,6.50
2022-11-29T15:51:31.271Z,7.47
2022-11-29T15:53:39.014Z,7.47
2022-11-29T15:55:40.484Z,8.75
2022-11-29T15:57:43.313Z,7.40
2022-11-29T15:59:47.703Z,6.07
2022-11-29T16:01:51.865Z,6.53
2022-11-29T16:03:54.579Z,9.23
2022-11-29T16:06:21.938Z,7.13
2022-11-29T16:08:25.409Z,10.65
2022-11-29T16:10:35.171Z,6.70
2022-11-29T16:12:49.840Z,7.85
2022-11-29T16:14:52.476Z,6.88
2022-11-29T16:16:55.139Z,7.88
2022-11-29T16:19:07.469Z,7.43
2022-11-29T16:21:21.810Z,7.30
2022-11-29T16:23:32.413Z,6.93
2022-11-29T16:25:37.543Z,9.02
2022-11-29T16:27:39.364Z,10.25
2022-11-29T16:29:46.720Z,6.90
2022-11-29T16:31:48.165Z,8.63
2022-11-29T16:33:50.644Z,7.07
2022-11-29T16:36:02.580Z,8.55
2022-11-29T16:38:04.555Z,8.50
2022-11-29T16:40:06.390Z,9.88
2022-11-29T16:42:18.301Z,7.68
2022-11-29T16:44:49.889Z,12.02
2022-11-29T16:47:10.095Z,8.90
2022-11-29T16:49:32.214Z,11.70
2022-11-29T16:51:42.709Z,10.18
2022-11-29T16:53:47.780Z,10.43
2022-11-29T16:55:49.673Z,11.50
2022-11-29T16:57:52.388Z,11.73
2022-11-29T16:59:54.013Z,12.23
2022-11-29T17:01:56.451Z,9.82
2022-11-29T17:03:59.598Z,8.98
2022-11-29T17:06:01.051Z,10.75
2022-11-29T17:08:02.531Z,9.63
2022-11-29T17:10:05.268Z,12.30
2022-11-29T17:12:06.942Z,13.77
2022-11-29T17:14:08.511Z,12.35
2022-11-29T17:16:13.486Z,12.43
2022-11-29T17:18:14.959Z,11.40
2022-11-29T17:20:16.481Z,13.77
2022-11-29T17:22:19.179Z,12.65
2022-11-29T17:24:21.521Z,11.20
2022-11-29T17:26:23.458Z,12.93
2022-11-29T17:28:25.316Z,11.50
2022-11-29T17:30:29.910Z,11.38
2022-11-29T17:32:33.102Z,11.68
2022-11-29T17:34:35.235Z,13.52
2022-11-29T17:36:36.780Z,12.27
2022-11-29T17:38:38.384Z,12.70
2022-11-29T17:40:40.103Z,14.75
2022-11-29T17:42:41.652Z,13.60
2022-11-29T17:44:43.115Z,12.52
2022-11-29T17:46:44.503Z,15.60
2022-11-29T17:48:46.291Z,12.45
2022-11-29T17:50:47.647Z,14.32
2022-11-29T17:52:49.027Z,14.60
2022-11-29T17:54:50.425Z,14.75
2022-11-29T17:56:52.033Z,16.83
2022-11-29T17:58:54.299Z,12.98
2022-11-29T18:01:02.102Z,15.05
2022-11-29T18:03:03.626Z,13.45
2022-11-29T18:05:05.350Z,17.40
2022-11-29T18:07:06.715Z,17.73
2022-11-29T18:09:10.338Z,15.88
2022-11-29T18:11:16.349Z,16.00
2022-11-29T18:13:17.790Z,15.90
2022-11-29T18:15:19.320Z,14.68
2022-11-29T18:17:20.767Z,15.93
2022-11-29T18:19:22.863Z,15.30
2022-11-29T18:21:24.469Z,13.90
2022-11-29T18:23:27.651Z,14.75
2022-11-29T18:25:44.182Z,13.90
2022-11-29T18:27:45.754Z,13.45
2022-11-29T18:29:47.339Z,14.68
2022-11-29T18:31:48.937Z,16.20
2022-11-29T18:33:52.125Z,16.73
2022-11-29T18:35:53.460Z,17.40
2022-11-29T18:38:14.840Z,16.38
2022-11-29T18:40:17.221Z,16.92
2022-11-29T18:42:18.642Z,16.83
2022-11-29T18:44:21.657Z,19.17
2022-11-29T18:46:24.795Z,16.73
2022-11-29T18:48:26.142Z,16.15
2022-11-29T18:50:27.635Z,18.10
2022-11-29T18:52:29.125Z,17.52
2022-11-29T18:54:31.115Z,17.95
2022-11-29T18:56:34.285Z,17.73
2022-11-29T18:58:35.824Z,17.85
2022-11-29T19:00:37.204Z,18.20
2022-11-29T19:02:38.594Z,15.90
2022-11-29T19:04:40.101Z,18.70
2022-11-29T19:06:42.189Z,16.95
2022-11-29T19:08:43.842Z,19.65
2022-11-29T19:10:45.220Z,18.95
2022-11-29T19:12:46.640Z,20.90
2022-11-29T19:14:50.081Z,20.13
2022-11-29T19:16:51.687Z,18.15
2022-11-29T19:18:56.297Z,16.38
2022-11-29T19:21:07.590Z,19.70
2022-11-29T19:23:09.015Z,17.30
2022-11-29T19:25:10.514Z,18.70
2022-11-29T19:27:12.148Z,16.88
2022-11-29T19:29:14.177Z,19.85
2022-11-29T19:31:17.227Z,20.15
2022-11-29T19:33:18.682Z,16.85
2022-11-29T19:35:20.114Z,17.30
2022-11-29T19:37:21.610Z,17.35
2022-11-29T19:39:23.246Z,18.42
2022-11-29T19:41:26.952Z,19.48
2022-11-29T19:43:28.472Z,16.67
2022-11-29T19:45:29.855Z,18.35
2022-11-29T19:47:31.416Z,18.63
2022-11-29T19:49:32.855Z,18.48
2022-11-29T19:51:34.816Z,18.30
2022-11-29T19:53:36.456Z,20.95
2022-11-29T19:55:43.791Z,20.80
2022-11-29T19:57:45.706Z,20.15
2022-11-29T19:59:47.544Z,17.95
2022-11-29T20:01:49.169Z,19.08
2022-11-29T20:03:51.287Z,18.77
2022-11-29T20:05:53.431Z,16.65
2022-11-29T20:07:55.108Z,20.60
2022-11-29T20:09:56.580Z,20.15
2022-11-29T20:11:58.089Z,19.27
2022-11-29T20:14:00.481Z,19.55
2022-11-29T20:16:02.819Z,17.50
2022-11-29T20:18:05.084Z,22.15
2022-11-29T20:20:06.924Z,21.35
2022-11-29T20:22:08.413Z,18.10
2022-11-29T20:24:10.357Z,18.33
2022-11-29T20:26:13.269Z,19.70
2022-11-29T20:28:14.712Z,19.40
2022-11-29T20:30:16.132Z,18.00
2022-11-29T20:32:17.907Z,19.40
2022-11-29T20:34:19.902Z,17.67
2022-11-29T20:36:39.874Z,19.77
2022-11-29T20:38:49.128Z,20.27
2022-11-29T20:41:04.866Z,18.55
2022-11-29T20:43:15.834Z,20.35
2022-11-29T20:45:17.354Z,17.70
2022-11-29T20:47:20.398Z,17.20
2022-11-29T20:49:21.997Z,20.67
2022-11-29T20:51:27.164Z,20.35
2022-11-29T20:53:36.454Z,17.33
2022-11-29T20:55:42.527Z,17.52
2022-11-29T20:57:47.817Z,19.10
2022-11-29T20:59:49.377Z,15.70
2022-11-29T21:01:50.945Z,16.58
2022-11-29T21:03:52.445Z,18.73
2022-11-29T21:05:54.750Z,18.08
2022-11-29T21:07:56.235Z,17.92
2022-11-29T21:10:01.162Z,18.42
2022-11-29T21:12:03.399Z,19.20
2022-11-29T21:14:05.973Z,17.55
2022-11-29T21:16:07.725Z,18.02
2022-11-29T21:18:16.441Z,17.45
2022-11-29T21:20:20.832Z,18.67
2022-11-29T21:22:34.875Z,19.35
2022-11-29T21:24:36.776Z,20.85
2022-11-29T21:26:42.408Z,17.10
2022-11-29T21:28:50.988Z,18.48
2022-11-29T21:30:57.159Z,19.55
2022-11-29T21:32:58.634Z,18.55
2022-11-29T21:35:00.097Z,17.00
2022-11-29T21:37:01.653Z,18.42
2022-11-29T21:39:05.500Z,22.27
2022-11-29T21:41:07.152Z,17.90
2022-11-29T21:43:08.541Z,19.55
2022-11-29T21:45:15.194Z,18.70
2022-11-29T21:47:17.499Z,17.15
2022-11-29T21:49:18.843Z,19.15
2022-11-29T21:51:22.954Z,18.40
2022-11-29T21:53:24.534Z,19.60
2022-11-29T21:55:31.713Z,21.70
2022-11-29T21:57:33.783Z,19.13
2022-11-29T21:59:35.229Z,17.33
2022-11-29T22:01:36.708Z,17.92
2022-11-29T22:03:39.064Z,17.83
2022-11-29T22:05:40.462Z,18.75
2022-11-29T22:07:41.973Z,19.13
2022-11-29T22:09:43.626Z,20.65
2022-11-29T22:11:45.205Z,18.73
2022-11-29T22:14:06.902Z,19.52
2022-11-29T22:16:09.630Z,19.70
2022-11-29T22:18:11.116Z,16.00
2022-11-29T22:20:12.593Z,18.83
2022-11-29T22:22:14.068Z,18.70
2022-11-29T22:24:16.235Z,19.40
2022-11-29T22:26:17.657Z,18.05
2022-11-29T22:28:19.040Z,19.92
2022-11-29T22:30:20.577Z,20.80
2022-11-29T22:32:21.931Z,18.45
2022-11-29T22:34:25.190Z,17.50
2022-11-29T22:36:26.589Z,18.85
2022-11-29T22:38:28.277Z,19.83
2022-11-29T22:40:29.760Z,18.63
2022-11-29T22:42:31.481Z,18.00
2022-11-29T22:44:32.882Z,22.20
2022-11-29T22:46:37.766Z,21.90
2022-11-29T22:48:39.908Z,20.33
2022-11-29T22:50:41.448Z,17.75
2022-11-29T22:52:42.960Z,18.08
2022-11-29T22:54:44.691Z,17.42
2022-11-29T22:56:46.401Z,17.67
2022-11-29T22:58:48.005Z,18.30
2022-11-29T23:00:49.463Z,18.42
2022-11-29T23:02:50.992Z,18.27
2022-11-29T23:04:52.435Z,16.55
2022-11-29T23:06:53.893Z,19.23
2022-11-29T23:08:56.766Z,18.95
2022-11-29T23:10:58.457Z,19.20
2022-11-29T23:12:59.952Z,18.50
2022-11-29T23:15:02.801Z,18.48
2022-11-29T23:17:04.246Z,17.67
2022-11-29T23:19:05.781Z,18.85
2022-11-29T23:21:09.120Z,20.42
2022-11-29T23:23:10.633Z,18.17
2022-11-29T23:25:12.006Z,17.95
2022-11-29T23:27:13.572Z,19.75
2022-11-29T23:29:16.555Z,18.27
2022-11-29T23:31:18.217Z,19.27
2022-11-29T23:33:19.942Z,19.27
2022-11-29T23:35:22.533Z,18.50
2022-11-29T23:37:24.011Z,18.52
2022-11-29T23:39:25.425Z,19.30
2022-11-29T23:41:27.115Z,23.58
2022-11-29T23:43:29.390Z,37.80
2022-11-29T23:45:30.931Z,19.08
2022-11-29T23:47:32.461Z,23.45
2022-11-29T23:49:35.946Z,19.08
2022-11-29T23:51:37.304Z,18.50
2022-11-29T23:53:39.362Z,15.73
2022-11-29T23:55:40.957Z,17.73
2022-11-29T23:57:42.512Z,17.88
2022-11-29T23:59:44.294Z,16.70
